sensor_id;sensor_type;location;lat;lon;timestamp;temperature;humidity
19947;DHT22;10135;50.702;7.276;2023-07-31T05:00:32;21.60;59.70
19947;DHT22;10135;50.702;7.276;2023-07-31T05:02:50;21.60;59.80
19947;DHT22;10135;50.702;7.276;2023-07-31T05:07:27;21.60;60.00
19947;DHT22;10135;50.702;7.276;2023-07-31T05:09:43;21.60;60.00
19947;DHT22;10135;50.702;7.276;2023-07-31T05:12:10;21.60;60.20
19947;DHT22;10135;50.702;7.276;2023-07-31T05:14:29;21.60;60.70
19947;DHT22;10135;50.702;7.276;2023-07-31T05:16:41;21.60;60.00
19947;DHT22;10135;50.702;7.276;2023-07-31T05:18:54;21.60;60.20
19947;DHT22;10135;50.702;7.276;2023-07-31T05:21:04;21.60;60.10
19947;DHT22;10135;50.702;7.276;2023-07-31T05:23:04;21.60;60.00
19947;DHT22;10135;50.702;7.276;2023-07-31T05:25:05;21.60;60.10
19947;DHT22;10135;50.702;7.276;2023-07-31T05:27:06;21.60;60.10
19947;DHT22;10135;50.702;7.276;2023-07-31T05:29:07;21.60;60.20
19947;DHT22;10135;50.702;7.276;2023-07-31T05:31:08;21.60;60.20
19947;DHT22;10135;50.702;7.276;2023-07-31T05:33:08;21.60;60.30
19947;DHT22;10135;50.702;7.276;2023-07-31T05:35:09;21.60;60.40
19947;DHT22;10135;50.702;7.276;2023-07-31T05:37:10;21.60;60.40
19947;DHT22;10135;50.702;7.276;2023-07-31T05:39:12;21.60;60.40
19947;DHT22;10135;50.702;7.276;2023-07-31T05:41:15;21.60;60.40
19947;DHT22;10135;50.702;7.276;2023-07-31T05:43:16;21.60;60.60
19947;DHT22;10135;50.702;7.276;2023-07-31T05:45:17;21.60;60.60
19947;DHT22;10135;50.702;7.276;2023-07-31T05:47:17;21.70;60.60
19947;DHT22;10135;50.702;7.276;2023-07-31T05:49:18;21.70;60.60
19947;DHT22;10135;50.702;7.276;2023-07-31T05:51:19;21.60;60.60
19947;DHT22;10135;50.702;7.276;2023-07-31T05:53:19;21.70;60.80
19947;DHT22;10135;50.702;7.276;2023-07-31T05:55:20;21.70;60.80
19947;DHT22;10135;50.702;7.276;2023-07-31T05:57:21;21.70;60.80
19947;DHT22;10135;50.702;7.276;2023-07-31T05:59:22;21.70;60.80
19947;DHT22;10135;50.702;7.276;2023-07-31T06:01:22;21.70;60.90
19947;DHT22;10135;50.702;7.276;2023-07-31T06:03:23;21.70;60.90
19947;DHT22;10135;50.702;7.276;2023-07-31T06:05:24;21.70;60.90
19947;DHT22;10135;50.702;7.276;2023-07-31T06:07:25;21.70;61.00
19947;DHT22;10135;50.702;7.276;2023-07-31T06:09:25;21.70;61.00
19947;DHT22;10135;50.702;7.276;2023-07-31T06:11:26;21.70;61.00
19947;DHT22;10135;50.702;7.276;2023-07-31T06:13:27;21.70;61.00
19947;DHT22;10135;50.702;7.276;2023-07-31T06:15:27;21.70;61.00
19947;DHT22;10135;50.702;7.276;2023-07-31T06:17:28;21.70;61.00
19947;DHT22;10135;50.702;7.276;2023-07-31T06:19:30;21.70;61.10
19947;DHT22;10135;50.702;7.276;2023-07-31T06:21:30;21.70;61.20
19947;DHT22;10135;50.702;7.276;2023-07-31T06:23:31;21.70;61.30
19947;DHT22;10135;50.702;7.276;2023-07-31T06:25:33;21.70;61.30
19947;DHT22;10135;50.702;7.276;2023-07-31T06:27:33;21.70;61.50
19947;DHT22;10135;50.702;7.276;2023-07-31T06:29:34;21.70;61.50
19947;DHT22;10135;50.702;7.276;2023-07-31T06:31:35;21.70;61.50
19947;DHT22;10135;50.702;7.276;2023-07-31T06:33:36;21.60;61.50
19947;DHT22;10135;50.702;7.276;2023-07-31T06:35:36;21.60;61.60
19947;DHT22;10135;50.702;7.276;2023-07-31T06:37:37;21.60;61.70
19947;DHT22;10135;50.702;7.276;2023-07-31T06:39:40;21.50;61.70
19947;DHT22;10135;50.702;7.276;2023-07-31T06:41:42;21.50;61.80
19947;DHT22;10135;50.702;7.276;2023-07-31T06:43:43;21.50;61.90
19947;DHT22;10135;50.702;7.276;2023-07-31T06:45:43;21.40;61.90
19947;DHT22;10135;50.702;7.276;2023-07-31T06:47:44;21.40;62.00
19947;DHT22;10135;50.702;7.276;2023-07-31T06:49:45;21.40;62.20
19947;DHT22;10135;50.702;7.276;2023-07-31T06:51:46;21.30;62.20
19947;DHT22;10135;50.702;7.276;2023-07-31T06:53:46;21.30;62.30
19947;DHT22;10135;50.702;7.276;2023-07-31T06:55:47;21.30;62.40
19947;DHT22;10135;50.702;7.276;2023-07-31T06:57:49;21.30;62.50
19947;DHT22;10135;50.702;7.276;2023-07-31T06:59:51;21.20;62.60
19947;DHT22;10135;50.702;7.276;2023-07-31T07:01:51;21.20;62.70
19947;DHT22;10135;50.702;7.276;2023-07-31T07:03:52;21.20;62.90
19947;DHT22;10135;50.702;7.276;2023-07-31T07:05:53;21.20;62.90
19947;DHT22;10135;50.702;7.276;2023-07-31T07:07:54;21.20;63.00
19947;DHT22;10135;50.702;7.276;2023-07-31T07:09:54;21.20;63.10
19947;DHT22;10135;50.702;7.276;2023-07-31T07:11:55;21.20;63.20
19947;DHT22;10135;50.702;7.276;2023-07-31T07:13:56;21.20;63.30
19947;DHT22;10135;50.702;7.276;2023-07-31T07:15:56;21.20;63.30
19947;DHT22;10135;50.702;7.276;2023-07-31T07:17:57;21.20;63.40
19947;DHT22;10135;50.702;7.276;2023-07-31T07:19:58;21.20;63.40
19947;DHT22;10135;50.702;7.276;2023-07-31T07:21:59;21.20;63.50
19947;DHT22;10135;50.702;7.276;2023-07-31T07:24:02;21.30;64.40
19947;DHT22;10135;50.702;7.276;2023-07-31T07:26:03;21.30;63.70
19947;DHT22;10135;50.702;7.276;2023-07-31T07:28:03;21.30;63.80
19947;DHT22;10135;50.702;7.276;2023-07-31T07:30:05;21.40;63.80
19947;DHT22;10135;50.702;7.276;2023-07-31T07:32:21;21.40;63.80
19947;DHT22;10135;50.702;7.276;2023-07-31T07:34:33;21.40;64.40
19947;DHT22;10135;50.702;7.276;2023-07-31T07:36:37;21.50;64.30
19947;DHT22;10135;50.702;7.276;2023-07-31T07:38:58;21.50;64.00
19947;DHT22;10135;50.702;7.276;2023-07-31T07:41:20;21.50;64.00
19947;DHT22;10135;50.702;7.276;2023-07-31T07:43:24;21.60;64.30
19947;DHT22;10135;50.702;7.276;2023-07-31T07:45:27;21.60;63.80
19947;DHT22;10135;50.702;7.276;2023-07-31T07:47:48;21.60;63.80
19947;DHT22;10135;50.702;7.276;2023-07-31T07:50:40;21.60;64.30
19947;DHT22;10135;50.702;7.276;2023-07-31T07:52:24;21.70;64.10
19947;DHT22;10135;50.702;7.276;2023-07-31T07:54:36;21.70;64.00
19947;DHT22;10135;50.702;7.276;2023-07-31T07:56:40;21.70;64.40
19947;DHT22;10135;50.702;7.276;2023-07-31T07:58:44;21.70;63.80
19947;DHT22;10135;50.702;7.276;2023-07-31T08:00:51;21.70;64.00
19947;DHT22;10135;50.702;7.276;2023-07-31T08:03:14;21.60;63.80
19947;DHT22;10135;50.702;7.276;2023-07-31T08:05:26;21.60;63.90
19947;DHT22;10135;50.702;7.276;2023-07-31T08:07:27;21.60;64.00
19947;DHT22;10135;50.702;7.276;2023-07-31T08:09:27;21.50;64.00
19947;DHT22;10135;50.702;7.276;2023-07-31T08:11:28;21.50;64.10
19947;DHT22;10135;50.702;7.276;2023-07-31T08:13:29;21.50;64.20
19947;DHT22;10135;50.702;7.276;2023-07-31T08:15:30;21.40;64.20
19947;DHT22;10135;50.702;7.276;2023-07-31T08:17:30;21.40;65.00
19947;DHT22;10135;50.702;7.276;2023-07-31T08:19:31;21.40;65.10
19947;DHT22;10135;50.702;7.276;2023-07-31T08:21:32;21.30;64.30
19947;DHT22;10135;50.702;7.276;2023-07-31T08:23:32;21.30;64.40
19947;DHT22;10135;50.702;7.276;2023-07-31T08:25:35;21.30;64.60
19947;DHT22;10135;50.702;7.276;2023-07-31T08:27:36;21.30;64.80
19947;DHT22;10135;50.702;7.276;2023-07-31T08:29:37;21.20;64.60
19947;DHT22;10135;50.702;7.276;2023-07-31T08:31:37;21.20;64.70
19947;DHT22;10135;50.702;7.276;2023-07-31T08:33:39;21.20;65.00
19947;DHT22;10135;50.702;7.276;2023-07-31T08:35:40;21.20;65.00
19947;DHT22;10135;50.702;7.276;2023-07-31T08:37:41;21.20;65.20
19947;DHT22;10135;50.702;7.276;2023-07-31T08:39:41;21.20;65.30
19947;DHT22;10135;50.702;7.276;2023-07-31T08:41:42;21.20;65.30
19947;DHT22;10135;50.702;7.276;2023-07-31T08:43:44;21.20;65.50
19947;DHT22;10135;50.702;7.276;2023-07-31T08:45:47;21.20;65.60
19947;DHT22;10135;50.702;7.276;2023-07-31T08:47:50;21.20;65.40
19947;DHT22;10135;50.702;7.276;2023-07-31T08:49:52;21.20;65.60
19947;DHT22;10135;50.702;7.276;2023-07-31T08:51:54;21.20;65.70
19947;DHT22;10135;50.702;7.276;2023-07-31T08:53:58;21.20;65.70
19947;DHT22;10135;50.702;7.276;2023-07-31T08:55:59;21.20;65.70
19947;DHT22;10135;50.702;7.276;2023-07-31T08:58:02;21.20;65.80
19947;DHT22;10135;50.702;7.276;2023-07-31T09:00:05;21.20;66.00
19947;DHT22;10135;50.702;7.276;2023-07-31T09:02:08;21.20;65.90
19947;DHT22;10135;50.702;7.276;2023-07-31T09:04:09;21.20;65.90
19947;DHT22;10135;50.702;7.276;2023-07-31T09:06:13;21.20;66.10
19947;DHT22;10135;50.702;7.276;2023-07-31T09:08:21;21.10;66.00
19947;DHT22;10135;50.702;7.276;2023-07-31T09:10:23;21.10;66.30
19947;DHT22;10135;50.702;7.276;2023-07-31T09:12:25;21.10;66.10
19947;DHT22;10135;50.702;7.276;2023-07-31T09:14:26;21.10;66.30
19947;DHT22;10135;50.702;7.276;2023-07-31T09:16:30;21.10;66.30
19947;DHT22;10135;50.702;7.276;2023-07-31T09:18:53;21.10;66.50
19947;DHT22;10135;50.702;7.276;2023-07-31T09:21:04;21.10;67.20
19947;DHT22;10135;50.702;7.276;2023-07-31T09:23:13;21.10;66.90
19947;DHT22;10135;50.702;7.276;2023-07-31T09:25:20;21.10;66.70
19947;DHT22;10135;50.702;7.276;2023-07-31T09:27:25;21.10;67.20
19947;DHT22;10135;50.702;7.276;2023-07-31T09:29:27;21.10;66.50
19947;DHT22;10135;50.702;7.276;2023-07-31T09:33:55;21.10;66.90
19947;DHT22;10135;50.702;7.276;2023-07-31T09:35:58;21.10;67.20
19947;DHT22;10135;50.702;7.276;2023-07-31T09:38:05;21.10;66.70
19947;DHT22;10135;50.702;7.276;2023-07-31T09:40:07;21.10;66.80
19947;DHT22;10135;50.702;7.276;2023-07-31T09:42:08;21.10;66.70
19947;DHT22;10135;50.702;7.276;2023-07-31T09:44:09;21.20;66.80
19947;DHT22;10135;50.702;7.276;2023-07-31T09:46:13;21.10;66.70
19947;DHT22;10135;50.702;7.276;2023-07-31T09:48:17;21.20;67.20
19947;DHT22;10135;50.702;7.276;2023-07-31T09:50:20;21.20;66.90
19947;DHT22;10135;50.702;7.276;2023-07-31T09:52:22;21.20;67.30
19947;DHT22;10135;50.702;7.276;2023-07-31T09:54:26;21.20;66.90
19947;DHT22;10135;50.702;7.276;2023-07-31T09:56:27;21.20;66.90
19947;DHT22;10135;50.702;7.276;2023-07-31T09:58:29;21.20;67.00
19947;DHT22;10135;50.702;7.276;2023-07-31T10:00:31;21.20;67.10
19947;DHT22;10135;50.702;7.276;2023-07-31T10:02:32;21.20;67.00
19947;DHT22;10135;50.702;7.276;2023-07-31T10:04:33;21.20;67.20
19947;DHT22;10135;50.702;7.276;2023-07-31T10:06:35;21.20;67.20
19947;DHT22;10135;50.702;7.276;2023-07-31T10:08:36;21.30;67.30
19947;DHT22;10135;50.702;7.276;2023-07-31T10:10:41;21.20;67.20
19947;DHT22;10135;50.702;7.276;2023-07-31T10:12:44;21.30;67.30
19947;DHT22;10135;50.702;7.276;2023-07-31T10:14:47;21.30;67.20
19947;DHT22;10135;50.702;7.276;2023-07-31T10:16:48;21.30;67.10
19947;DHT22;10135;50.702;7.276;2023-07-31T10:18:50;21.30;67.30
19947;DHT22;10135;50.702;7.276;2023-07-31T10:20:53;21.30;67.40
19947;DHT22;10135;50.702;7.276;2023-07-31T10:22:56;21.40;67.10
19947;DHT22;10135;50.702;7.276;2023-07-31T10:24:59;21.40;67.20
19947;DHT22;10135;50.702;7.276;2023-07-31T10:27:01;21.40;67.10
19947;DHT22;10135;50.702;7.276;2023-07-31T10:29:04;21.40;67.00
19947;DHT22;10135;50.702;7.276;2023-07-31T10:31:06;21.50;67.00
19947;DHT22;10135;50.702;7.276;2023-07-31T10:33:08;21.50;67.00
19947;DHT22;10135;50.702;7.276;2023-07-31T10:35:09;21.50;66.90
19947;DHT22;10135;50.702;7.276;2023-07-31T10:37:21;21.50;66.90
19947;DHT22;10135;50.702;7.276;2023-07-31T10:39:36;21.50;67.00
19947;DHT22;10135;50.702;7.276;2023-07-31T10:41:42;21.60;67.30
19947;DHT22;10135;50.702;7.276;2023-07-31T10:44:06;21.60;67.00
19947;DHT22;10135;50.702;7.276;2023-07-31T10:46:54;21.70;67.20
19947;DHT22;10135;50.702;7.276;2023-07-31T10:49:35;21.70;67.00
19947;DHT22;10135;50.702;7.276;2023-07-31T10:52:19;21.70;67.20
19947;DHT22;10135;50.702;7.276;2023-07-31T10:54:35;21.80;67.40
19947;DHT22;10135;50.702;7.276;2023-07-31T10:57:02;21.90;67.40
19947;DHT22;10135;50.702;7.276;2023-07-31T10:59:38;21.90;67.40
19947;DHT22;10135;50.702;7.276;2023-07-31T11:04:17;22.10;67.60
19947;DHT22;10135;50.702;7.276;2023-07-31T11:06:29;22.20;67.10
19947;DHT22;10135;50.702;7.276;2023-07-31T11:08:48;22.20;66.90
19947;DHT22;10135;50.702;7.276;2023-07-31T11:11:08;22.30;66.80
19947;DHT22;10135;50.702;7.276;2023-07-31T11:13:16;22.30;66.70
19947;DHT22;10135;50.702;7.276;2023-07-31T11:15:28;22.40;66.60
19947;DHT22;10135;50.702;7.276;2023-07-31T11:17:34;22.40;66.60
19947;DHT22;10135;50.702;7.276;2023-07-31T11:20:35;22.40;66.50
19947;DHT22;10135;50.702;7.276;2023-07-31T11:22:47;22.50;66.60
19947;DHT22;10135;50.702;7.276;2023-07-31T11:24:56;22.50;66.40
19947;DHT22;10135;50.702;7.276;2023-07-31T11:27:07;22.50;66.20
19947;DHT22;10135;50.702;7.276;2023-07-31T11:29:27;22.50;66.10
19947;DHT22;10135;50.702;7.276;2023-07-31T11:32:00;22.50;66.20
19947;DHT22;10135;50.702;7.276;2023-07-31T11:34:06;22.60;66.00
19947;DHT22;10135;50.702;7.276;2023-07-31T11:36:17;22.60;66.00
19947;DHT22;10135;50.702;7.276;2023-07-31T11:38:23;22.60;65.90
19947;DHT22;10135;50.702;7.276;2023-07-31T11:40:31;22.60;65.90
19947;DHT22;10135;50.702;7.276;2023-07-31T11:42:38;22.70;65.80
19947;DHT22;10135;50.702;7.276;2023-07-31T11:44:44;22.70;65.60
19947;DHT22;10135;50.702;7.276;2023-07-31T11:46:58;22.70;65.60
19947;DHT22;10135;50.702;7.276;2023-07-31T11:49:03;22.70;65.70
19947;DHT22;10135;50.702;7.276;2023-07-31T11:51:05;22.80;65.80
19947;DHT22;10135;50.702;7.276;2023-07-31T11:53:09;22.80;65.90
19947;DHT22;10135;50.702;7.276;2023-07-31T11:55:10;22.80;65.90
19947;DHT22;10135;50.702;7.276;2023-07-31T11:57:13;22.80;66.00
19947;DHT22;10135;50.702;7.276;2023-07-31T11:59:14;22.80;66.00
19947;DHT22;10135;50.702;7.276;2023-07-31T12:01:16;22.80;66.10
19947;DHT22;10135;50.702;7.276;2023-07-31T12:03:19;22.80;66.20
19947;DHT22;10135;50.702;7.276;2023-07-31T12:05:22;22.80;66.30
19947;DHT22;10135;50.702;7.276;2023-07-31T12:07:24;22.80;66.50
19947;DHT22;10135;50.702;7.276;2023-07-31T12:09:25;22.80;66.50
19947;DHT22;10135;50.702;7.276;2023-07-31T12:11:26;22.80;66.50
19947;DHT22;10135;50.702;7.276;2023-07-31T12:13:27;22.80;66.50
19947;DHT22;10135;50.702;7.276;2023-07-31T12:15:42;22.80;66.70
19947;DHT22;10135;50.702;7.276;2023-07-31T12:17:47;22.90;66.90
19947;DHT22;10135;50.702;7.276;2023-07-31T12:19:48;23.00;66.70
19947;DHT22;10135;50.702;7.276;2023-07-31T12:21:49;23.10;66.90
19947;DHT22;10135;50.702;7.276;2023-07-31T12:23:51;23.20;66.60
19947;DHT22;10135;50.702;7.276;2023-07-31T12:28:13;23.40;66.40
19947;DHT22;10135;50.702;7.276;2023-07-31T12:30:31;23.50;66.40
19947;DHT22;10135;50.702;7.276;2023-07-31T12:32:34;23.60;66.10
19947;DHT22;10135;50.702;7.276;2023-07-31T12:34:42;23.70;66.10
19947;DHT22;10135;50.702;7.276;2023-07-31T12:36:44;23.70;66.40
19947;DHT22;10135;50.702;7.276;2023-07-31T12:38:45;23.80;65.60
19947;DHT22;10135;50.702;7.276;2023-07-31T12:40:46;23.80;65.40
19947;DHT22;10135;50.702;7.276;2023-07-31T12:42:47;23.90;65.40
19947;DHT22;10135;50.702;7.276;2023-07-31T12:44:47;23.90;65.20
19947;DHT22;10135;50.702;7.276;2023-07-31T12:46:48;23.90;65.10
19947;DHT22;10135;50.702;7.276;2023-07-31T12:48:49;23.90;65.00
19947;DHT22;10135;50.702;7.276;2023-07-31T12:50:50;23.90;64.80
19947;DHT22;10135;50.702;7.276;2023-07-31T12:52:51;23.90;64.80
19947;DHT22;10135;50.702;7.276;2023-07-31T12:54:53;23.90;64.70
19947;DHT22;10135;50.702;7.276;2023-07-31T12:56:53;23.90;64.60
19947;DHT22;10135;50.702;7.276;2023-07-31T12:58:54;23.90;64.60
19947;DHT22;10135;50.702;7.276;2023-07-31T13:00:55;23.90;64.60
19947;DHT22;10135;50.702;7.276;2023-07-31T13:02:55;23.80;64.40
19947;DHT22;10135;50.702;7.276;2023-07-31T13:04:56;23.80;64.40
19947;DHT22;10135;50.702;7.276;2023-07-31T13:06:57;23.80;64.40
19947;DHT22;10135;50.702;7.276;2023-07-31T13:08:58;23.80;64.30
19947;DHT22;10135;50.702;7.276;2023-07-31T13:10:59;23.80;64.30
19947;DHT22;10135;50.702;7.276;2023-07-31T13:12:59;23.80;64.40
19947;DHT22;10135;50.702;7.276;2023-07-31T13:15:00;23.70;64.30
19947;DHT22;10135;50.702;7.276;2023-07-31T13:17:01;23.70;64.30
19947;DHT22;10135;50.702;7.276;2023-07-31T13:19:01;23.70;64.30
19947;DHT22;10135;50.702;7.276;2023-07-31T13:21:02;23.70;64.20
19947;DHT22;10135;50.702;7.276;2023-07-31T13:23:03;23.70;64.30
19947;DHT22;10135;50.702;7.276;2023-07-31T13:25:04;23.70;64.20
19947;DHT22;10135;50.702;7.276;2023-07-31T13:27:05;23.70;64.20
19947;DHT22;10135;50.702;7.276;2023-07-31T13:29:06;23.70;64.30
19947;DHT22;10135;50.702;7.276;2023-07-31T13:31:06;23.70;64.30
19947;DHT22;10135;50.702;7.276;2023-07-31T13:33:07;23.70;64.20
19947;DHT22;10135;50.702;7.276;2023-07-31T13:35:10;23.70;64.20
19947;DHT22;10135;50.702;7.276;2023-07-31T13:37:12;23.70;64.10
19947;DHT22;10135;50.702;7.276;2023-07-31T13:39:13;23.70;64.10
19947;DHT22;10135;50.702;7.276;2023-07-31T13:41:14;23.80;64.10
19947;DHT22;10135;50.702;7.276;2023-07-31T13:43:14;23.80;64.00
19947;DHT22;10135;50.702;7.276;2023-07-31T13:45:15;23.70;63.90
19947;DHT22;10135;50.702;7.276;2023-07-31T13:47:16;23.80;64.00
19947;DHT22;10135;50.702;7.276;2023-07-31T13:49:16;23.80;64.00
19947;DHT22;10135;50.702;7.276;2023-07-31T13:51:17;23.90;64.00
19947;DHT22;10135;50.702;7.276;2023-07-31T13:53:17;23.90;64.00
19947;DHT22;10135;50.702;7.276;2023-07-31T13:55:18;23.90;64.00
19947;DHT22;10135;50.702;7.276;2023-07-31T13:57:19;23.90;63.90
19947;DHT22;10135;50.702;7.276;2023-07-31T13:59:20;24.00;63.80
19947;DHT22;10135;50.702;7.276;2023-07-31T14:01:20;24.00;63.70
19947;DHT22;10135;50.702;7.276;2023-07-31T14:03:21;24.00;63.60
19947;DHT22;10135;50.702;7.276;2023-07-31T14:05:22;24.00;63.50
19947;DHT22;10135;50.702;7.276;2023-07-31T14:07:22;24.00;63.50
19947;DHT22;10135;50.702;7.276;2023-07-31T14:09:23;24.00;63.50
19947;DHT22;10135;50.702;7.276;2023-07-31T14:11:24;24.10;63.40
19947;DHT22;10135;50.702;7.276;2023-07-31T14:13:24;24.10;63.30
19947;DHT22;10135;50.702;7.276;2023-07-31T14:15:25;24.10;63.20
19947;DHT22;10135;50.702;7.276;2023-07-31T14:17:26;24.10;63.20
19947;DHT22;10135;50.702;7.276;2023-07-31T14:19:26;24.10;63.10
19947;DHT22;10135;50.702;7.276;2023-07-31T14:21:27;24.10;63.00
19947;DHT22;10135;50.702;7.276;2023-07-31T14:23:27;24.00;62.90
19947;DHT22;10135;50.702;7.276;2023-07-31T14:25:28;24.00;62.90
19947;DHT22;10135;50.702;7.276;2023-07-31T14:27:29;24.00;62.90
19947;DHT22;10135;50.702;7.276;2023-07-31T14:29:30;24.00;62.90
19947;DHT22;10135;50.702;7.276;2023-07-31T14:31:31;23.90;62.70
19947;DHT22;10135;50.702;7.276;2023-07-31T14:33:31;23.90;62.70
19947;DHT22;10135;50.702;7.276;2023-07-31T14:35:33;23.90;62.70
19947;DHT22;10135;50.702;7.276;2023-07-31T14:37:43;23.90;62.70
19947;DHT22;10135;50.702;7.276;2023-07-31T14:39:44;23.80;62.60
19947;DHT22;10135;50.702;7.276;2023-07-31T14:41:45;23.80;62.60
19947;DHT22;10135;50.702;7.276;2023-07-31T14:43:46;23.80;62.50
19947;DHT22;10135;50.702;7.276;2023-07-31T14:45:48;23.70;62.50
19947;DHT22;10135;50.702;7.276;2023-07-31T14:47:49;23.70;62.60
19947;DHT22;10135;50.702;7.276;2023-07-31T14:49:50;23.60;62.60
19947;DHT22;10135;50.702;7.276;2023-07-31T14:51:50;23.60;62.60
19947;DHT22;10135;50.702;7.276;2023-07-31T14:53:51;23.50;62.50
19947;DHT22;10135;50.702;7.276;2023-07-31T14:55:52;23.50;62.50
19947;DHT22;10135;50.702;7.276;2023-07-31T14:57:52;23.50;62.60
19947;DHT22;10135;50.702;7.276;2023-07-31T14:59:53;23.40;62.60
19947;DHT22;10135;50.702;7.276;2023-07-31T15:01:54;23.40;62.60
19947;DHT22;10135;50.702;7.276;2023-07-31T15:03:55;23.40;62.60
19947;DHT22;10135;50.702;7.276;2023-07-31T15:05:55;23.40;62.70
19947;DHT22;10135;50.702;7.276;2023-07-31T15:07:56;23.30;62.70
19947;DHT22;10135;50.702;7.276;2023-07-31T15:09:57;23.30;62.70
19947;DHT22;10135;50.702;7.276;2023-07-31T15:11:57;23.30;62.70
19947;DHT22;10135;50.702;7.276;2023-07-31T15:13:58;23.30;62.70
19947;DHT22;10135;50.702;7.276;2023-07-31T15:15:59;23.30;62.60
19947;DHT22;10135;50.702;7.276;2023-07-31T15:18:00;23.20;62.60
19947;DHT22;10135;50.702;7.276;2023-07-31T15:20:00;23.20;62.60
19947;DHT22;10135;50.702;7.276;2023-07-31T15:22:02;23.20;62.60
19947;DHT22;10135;50.702;7.276;2023-07-31T15:24:04;23.20;62.60
19947;DHT22;10135;50.702;7.276;2023-07-31T15:26:04;23.20;63.40
19947;DHT22;10135;50.702;7.276;2023-07-31T15:28:05;23.10;62.60
19947;DHT22;10135;50.702;7.276;2023-07-31T15:30:07;23.10;62.60
19947;DHT22;10135;50.702;7.276;2023-07-31T15:32:09;23.10;62.60
19947;DHT22;10135;50.702;7.276;2023-07-31T15:34:10;23.10;62.70
19947;DHT22;10135;50.702;7.276;2023-07-31T15:36:10;23.10;62.80
19947;DHT22;10135;50.702;7.276;2023-07-31T15:38:11;23.10;62.70
19947;DHT22;10135;50.702;7.276;2023-07-31T15:40:12;23.10;62.80
19947;DHT22;10135;50.702;7.276;2023-07-31T15:42:12;23.10;62.70
19947;DHT22;10135;50.702;7.276;2023-07-31T15:44:13;23.10;62.80
19947;DHT22;10135;50.702;7.276;2023-07-31T15:46:14;23.10;62.80
19947;DHT22;10135;50.702;7.276;2023-07-31T15:48:14;23.10;62.80
19947;DHT22;10135;50.702;7.276;2023-07-31T15:50:15;23.10;62.90
19947;DHT22;10135;50.702;7.276;2023-07-31T15:52:16;23.10;62.90
19947;DHT22;10135;50.702;7.276;2023-07-31T15:54:16;23.10;62.80
19947;DHT22;10135;50.702;7.276;2023-07-31T15:56:18;23.10;62.80
19947;DHT22;10135;50.702;7.276;2023-07-31T15:58:19;23.20;62.70
19947;DHT22;10135;50.702;7.276;2023-07-31T16:00:20;23.20;62.70
19947;DHT22;10135;50.702;7.276;2023-07-31T16:02:21;23.20;62.60
19947;DHT22;10135;50.702;7.276;2023-07-31T16:04:21;23.20;62.60
19947;DHT22;10135;50.702;7.276;2023-07-31T16:06:22;23.20;62.50
19947;DHT22;10135;50.702;7.276;2023-07-31T16:08:23;23.20;62.50
19947;DHT22;10135;50.702;7.276;2023-07-31T16:10:23;23.20;62.50
19947;DHT22;10135;50.702;7.276;2023-07-31T16:12:24;23.20;62.50
19947;DHT22;10135;50.702;7.276;2023-07-31T16:14:25;23.20;62.50
19947;DHT22;10135;50.702;7.276;2023-07-31T16:16:25;23.20;62.50
19947;DHT22;10135;50.702;7.276;2023-07-31T16:18:27;23.20;62.60
19947;DHT22;10135;50.702;7.276;2023-07-31T16:20:28;23.20;62.60
19947;DHT22;10135;50.702;7.276;2023-07-31T16:22:29;23.10;62.60
19947;DHT22;10135;50.702;7.276;2023-07-31T16:24:30;23.10;62.70
19947;DHT22;10135;50.702;7.276;2023-07-31T16:26:31;23.10;62.70
19947;DHT22;10135;50.702;7.276;2023-07-31T16:28:33;23.10;62.80
19947;DHT22;10135;50.702;7.276;2023-07-31T16:30:35;23.00;62.80
19947;DHT22;10135;50.702;7.276;2023-07-31T16:32:35;23.00;62.90
19947;DHT22;10135;50.702;7.276;2023-07-31T16:34:37;22.90;62.90
19947;DHT22;10135;50.702;7.276;2023-07-31T16:36:37;22.90;63.00
19947;DHT22;10135;50.702;7.276;2023-07-31T16:38:38;22.90;63.10
19947;DHT22;10135;50.702;7.276;2023-07-31T16:40:39;22.80;63.10
19947;DHT22;10135;50.702;7.276;2023-07-31T16:42:39;22.80;63.20
19947;DHT22;10135;50.702;7.276;2023-07-31T16:44:40;22.70;63.30
19947;DHT22;10135;50.702;7.276;2023-07-31T16:46:41;22.60;63.40
19947;DHT22;10135;50.702;7.276;2023-07-31T16:48:42;22.60;63.50
19947;DHT22;10135;50.702;7.276;2023-07-31T16:50:43;22.50;63.60
19947;DHT22;10135;50.702;7.276;2023-07-31T16:52:43;22.40;63.70
19947;DHT22;10135;50.702;7.276;2023-07-31T16:54:44;22.40;63.80
19947;DHT22;10135;50.702;7.276;2023-07-31T16:56:45;22.30;63.90
19947;DHT22;10135;50.702;7.276;2023-07-31T16:58:48;22.30;64.10
19947;DHT22;10135;50.702;7.276;2023-07-31T17:00:49;22.20;64.20
19947;DHT22;10135;50.702;7.276;2023-07-31T17:02:50;22.20;64.30
19947;DHT22;10135;50.702;7.276;2023-07-31T17:04:51;22.10;64.40
19947;DHT22;10135;50.702;7.276;2023-07-31T17:06:51;22.10;64.60
19947;DHT22;10135;50.702;7.276;2023-07-31T17:08:52;22.10;64.60
19947;DHT22;10135;50.702;7.276;2023-07-31T17:10:52;22.00;64.70
19947;DHT22;10135;50.702;7.276;2023-07-31T17:12:53;22.00;64.80
19947;DHT22;10135;50.702;7.276;2023-07-31T17:14:54;22.00;64.80
19947;DHT22;10135;50.702;7.276;2023-07-31T17:16:54;21.90;64.80
19947;DHT22;10135;50.702;7.276;2023-07-31T17:18:55;21.90;64.90
19947;DHT22;10135;50.702;7.276;2023-07-31T17:20:55;21.90;65.00
19947;DHT22;10135;50.702;7.276;2023-07-31T17:22:56;21.80;65.00
19947;DHT22;10135;50.702;7.276;2023-07-31T17:24:57;21.80;65.10
19947;DHT22;10135;50.702;7.276;2023-07-31T17:26:58;21.80;65.20
19947;DHT22;10135;50.702;7.276;2023-07-31T17:28:58;21.80;65.20
19947;DHT22;10135;50.702;7.276;2023-07-31T17:31:02;21.80;65.30
19947;DHT22;10135;50.702;7.276;2023-07-31T17:33:02;21.80;65.30
19947;DHT22;10135;50.702;7.276;2023-07-31T17:35:03;21.70;65.50
19947;DHT22;10135;50.702;7.276;2023-07-31T17:37:04;21.70;65.50
19947;DHT22;10135;50.702;7.276;2023-07-31T17:39:05;21.70;65.60
19947;DHT22;10135;50.702;7.276;2023-07-31T17:41:06;21.70;65.60
19947;DHT22;10135;50.702;7.276;2023-07-31T17:43:06;21.60;65.70
19947;DHT22;10135;50.702;7.276;2023-07-31T17:45:07;21.60;65.60
19947;DHT22;10135;50.702;7.276;2023-07-31T17:47:08;21.60;65.80
19947;DHT22;10135;50.702;7.276;2023-07-31T17:49:09;21.60;65.80
19947;DHT22;10135;50.702;7.276;2023-07-31T17:51:11;21.60;66.00
19947;DHT22;10135;50.702;7.276;2023-07-31T17:53:12;21.60;66.00
19947;DHT22;10135;50.702;7.276;2023-07-31T17:55:12;21.60;66.00
19947;DHT22;10135;50.702;7.276;2023-07-31T17:57:13;21.60;66.10
19947;DHT22;10135;50.702;7.276;2023-07-31T17:59:14;21.50;66.10
19947;DHT22;10135;50.702;7.276;2023-07-31T18:01:14;21.60;66.20
19947;DHT22;10135;50.702;7.276;2023-07-31T18:03:15;21.50;66.10
19947;DHT22;10135;50.702;7.276;2023-07-31T18:05:16;21.50;66.40
19947;DHT22;10135;50.702;7.276;2023-07-31T18:07:16;21.50;66.20
19947;DHT22;10135;50.702;7.276;2023-07-31T18:09:17;21.50;66.30